sensor_id;sensor_type;location;lat;lon;timestamp;pressure;altitude;pressure_sealevel;temperature;humidity
85764;BME280;76207;39.772;2.706;2024-03-02T00:00:19;101038.97;;;7.67;69.32
85764;BME280;76207;39.772;2.706;2024-03-02T00:02:48;101038.79;;;7.66;69.22
85764;BME280;76207;39.772;2.706;2024-03-02T00:05:19;101039.51;;;7.65;69.03
85764;BME280;76207;39.772;2.706;2024-03-02T00:07:54;101034.13;;;7.63;69.03
85764;BME280;76207;39.772;2.706;2024-03-02T00:10:24;101042.05;;;7.65;69.21
85764;BME280;76207;39.772;2.706;2024-03-02T00:12:54;101039.98;;;7.64;69.00
85764;BME280;76207;39.772;2.706;2024-03-02T00:18:04;101034.02;;;7.59;68.99
85764;BME280;76207;39.772;2.706;2024-03-02T00:20:30;101040.87;;;7.57;69.00
85764;BME280;76207;39.772;2.706;2024-03-02T00:23:10;101036.13;;;7.58;69.12
85764;BME280;76207;39.772;2.706;2024-03-02T00:25:46;101038.20;;;7.61;69.43
85764;BME280;76207;39.772;2.706;2024-03-02T00:28:25;101030.82;;;7.62;69.18
85764;BME280;76207;39.772;2.706;2024-03-02T00:30:58;101030.35;;;7.63;69.35
85764;BME280;76207;39.772;2.706;2024-03-02T00:33:26;101033.45;;;7.63;68.81
85764;BME280;76207;39.772;2.706;2024-03-02T00:35:57;101028.33;;;7.65;68.85
85764;BME280;76207;39.772;2.706;2024-03-02T00:38:23;101033.23;;;7.65;68.47
85764;BME280;76207;39.772;2.706;2024-03-02T00:40:49;101031.41;;;7.63;68.78
85764;BME280;76207;39.772;2.706;2024-03-02T00:46:04;101028.30;;;7.60;69.10
85764;BME280;76207;39.772;2.706;2024-03-02T00:48:30;101031.05;;;7.61;68.50
85764;BME280;76207;39.772;2.706;2024-03-02T00:51:05;101032.30;;;7.62;69.06
85764;BME280;76207;39.772;2.706;2024-03-02T00:53:31;101025.20;;;7.65;69.15
85764;BME280;76207;39.772;2.706;2024-03-02T00:56:01;101020.14;;;7.68;68.91
85764;BME280;76207;39.772;2.706;2024-03-02T00:58:27;101019.64;;;7.70;69.15
85764;BME280;76207;39.772;2.706;2024-03-02T01:00:52;101021.31;;;7.73;69.15
85764;BME280;76207;39.772;2.706;2024-03-02T01:03:17;101023.41;;;7.74;69.49
85764;BME280;76207;39.772;2.706;2024-03-02T01:05:45;101016.73;;;7.73;69.32
85764;BME280;76207;39.772;2.706;2024-03-02T01:08:12;101019.73;;;7.72;69.30
85764;BME280;76207;39.772;2.706;2024-03-02T01:10:37;101015.39;;;7.71;69.15
85764;BME280;76207;39.772;2.706;2024-03-02T01:13:03;101014.71;;;7.68;69.50
85764;BME280;76207;39.772;2.706;2024-03-02T01:15:29;101012.44;;;7.67;69.20
85764;BME280;76207;39.772;2.706;2024-03-02T01:17:54;101016.08;;;7.68;69.70
85764;BME280;76207;39.772;2.706;2024-03-02T01:20:20;101011.10;;;7.70;69.52
85764;BME280;76207;39.772;2.706;2024-03-02T01:22:45;101008.73;;;7.70;69.21
85764;BME280;76207;39.772;2.706;2024-03-02T01:25:11;101003.85;;;7.71;69.78
85764;BME280;76207;39.772;2.706;2024-03-02T01:27:37;101007.50;;;7.73;69.24
85764;BME280;76207;39.772;2.706;2024-03-02T01:30:02;101006.73;;;7.74;69.43
85764;BME280;76207;39.772;2.706;2024-03-02T01:32:28;101003.48;;;7.71;69.63
85764;BME280;76207;39.772;2.706;2024-03-02T01:34:53;101007.48;;;7.69;69.82
85764;BME280;76207;39.772;2.706;2024-03-02T01:37:19;100998.62;;;7.67;69.86
85764;BME280;76207;39.772;2.706;2024-03-02T01:39:44;100991.09;;;7.64;69.78
85764;BME280;76207;39.772;2.706;2024-03-02T01:42:10;100991.67;;;7.62;70.11
85764;BME280;76207;39.772;2.706;2024-03-02T01:44:40;100989.02;;;7.61;69.97
85764;BME280;76207;39.772;2.706;2024-03-02T01:47:05;100983.20;;;7.63;70.04
85764;BME280;76207;39.772;2.706;2024-03-02T01:49:31;100979.98;;;7.63;70.34
85764;BME280;76207;39.772;2.706;2024-03-02T01:51:58;100974.69;;;7.63;70.25
85764;BME280;76207;39.772;2.706;2024-03-02T01:54:26;100968.70;;;7.63;70.35
85764;BME280;76207;39.772;2.706;2024-03-02T01:56:52;100968.70;;;7.62;70.57
85764;BME280;76207;39.772;2.706;2024-03-02T01:59:18;100962.89;;;7.62;70.36
85764;BME280;76207;39.772;2.706;2024-03-02T02:01:44;100962.83;;;7.61;70.56
85764;BME280;76207;39.772;2.706;2024-03-02T02:04:09;100964.73;;;7.59;70.55
85764;BME280;76207;39.772;2.706;2024-03-02T02:06:35;100961.78;;;7.56;70.81
85764;BME280;76207;39.772;2.706;2024-03-02T02:09:00;100960.52;;;7.55;70.84
85764;BME280;76207;39.772;2.706;2024-03-02T02:11:26;100958.63;;;7.52;70.78
85764;BME280;76207;39.772;2.706;2024-03-02T02:13:52;100951.95;;;7.49;71.03
85764;BME280;76207;39.772;2.706;2024-03-02T02:16:20;100947.86;;;7.49;71.29
85764;BME280;76207;39.772;2.706;2024-03-02T02:18:46;100943.90;;;7.49;71.36
85764;BME280;76207;39.772;2.706;2024-03-02T02:21:12;100935.08;;;7.49;71.02
85764;BME280;76207;39.772;2.706;2024-03-02T02:23:38;100932.64;;;7.48;71.32
85764;BME280;76207;39.772;2.706;2024-03-02T02:26:03;100931.08;;;7.48;71.12
85764;BME280;76207;39.772;2.706;2024-03-02T02:28:29;100925.35;;;7.45;71.03
85764;BME280;76207;39.772;2.706;2024-03-02T02:30:55;100925.66;;;7.42;71.06
85764;BME280;76207;39.772;2.706;2024-03-02T02:33:25;100924.72;;;7.41;71.00
85764;BME280;76207;39.772;2.706;2024-03-02T02:35:50;100919.64;;;7.39;71.40
85764;BME280;76207;39.772;2.706;2024-03-02T02:38:16;100916.73;;;7.36;71.50
85764;BME280;76207;39.772;2.706;2024-03-02T02:40:42;100914.98;;;7.33;71.35
85764;BME280;76207;39.772;2.706;2024-03-02T02:43:07;100915.33;;;7.33;71.16
85764;BME280;76207;39.772;2.706;2024-03-02T02:45:33;100910.09;;;7.31;71.17
85764;BME280;76207;39.772;2.706;2024-03-02T02:47:58;100908.05;;;7.29;71.32
85764;BME280;76207;39.772;2.706;2024-03-02T02:50:23;100907.42;;;7.27;71.43
85764;BME280;76207;39.772;2.706;2024-03-02T02:52:49;100906.59;;;7.25;71.64
85764;BME280;76207;39.772;2.706;2024-03-02T02:55:15;100906.52;;;7.21;71.97
85764;BME280;76207;39.772;2.706;2024-03-02T02:57:42;100901.74;;;7.18;72.20
85764;BME280;76207;39.772;2.706;2024-03-02T03:00:11;100900.70;;;7.18;72.24
85764;BME280;76207;39.772;2.706;2024-03-02T03:02:40;100897.72;;;7.17;71.89
85764;BME280;76207;39.772;2.706;2024-03-02T03:05:10;100893.13;;;7.14;72.28
85764;BME280;76207;39.772;2.706;2024-03-02T03:07:36;100897.31;;;7.13;72.33
85764;BME280;76207;39.772;2.706;2024-03-02T03:10:03;100898.86;;;7.13;72.25
85764;BME280;76207;39.772;2.706;2024-03-02T03:12:30;100893.41;;;7.13;72.41
85764;BME280;76207;39.772;2.706;2024-03-02T03:14:57;100891.46;;;7.12;72.23
85764;BME280;76207;39.772;2.706;2024-03-02T03:17:22;100890.00;;;7.13;72.27
85764;BME280;76207;39.772;2.706;2024-03-02T03:19:49;100889.05;;;7.14;72.36
85764;BME280;76207;39.772;2.706;2024-03-02T03:22:15;100891.95;;;7.14;72.16
85764;BME280;76207;39.772;2.706;2024-03-02T03:24:40;100886.36;;;7.12;72.08
85764;BME280;76207;39.772;2.706;2024-03-02T03:27:06;100888.93;;;7.10;72.16
85764;BME280;76207;39.772;2.706;2024-03-02T03:29:32;100887.20;;;7.07;71.82
85764;BME280;76207;39.772;2.706;2024-03-02T03:31:57;100885.20;;;7.05;72.00
85764;BME280;76207;39.772;2.706;2024-03-02T03:34:23;100883.73;;;7.01;72.36
85764;BME280;76207;39.772;2.706;2024-03-02T03:36:48;100879.59;;;6.95;72.06
85764;BME280;76207;39.772;2.706;2024-03-02T03:39:14;100879.69;;;6.94;72.72
85764;BME280;76207;39.772;2.706;2024-03-02T03:41:42;100874.52;;;6.93;72.66
85764;BME280;76207;39.772;2.706;2024-03-02T03:44:07;100873.41;;;6.92;72.75
85764;BME280;76207;39.772;2.706;2024-03-02T03:46:33;100874.46;;;6.92;72.49
85764;BME280;76207;39.772;2.706;2024-03-02T03:48:58;100878.48;;;6.94;72.94
85764;BME280;76207;39.772;2.706;2024-03-02T03:51:25;100874.66;;;6.95;72.71
85764;BME280;76207;39.772;2.706;2024-03-02T03:53:51;100870.22;;;6.95;72.81
85764;BME280;76207;39.772;2.706;2024-03-02T03:56:16;100865.54;;;6.93;72.62
85764;BME280;76207;39.772;2.706;2024-03-02T03:58:42;100869.82;;;6.91;72.52
85764;BME280;76207;39.772;2.706;2024-03-02T04:01:07;100865.60;;;6.87;72.18
85764;BME280;76207;39.772;2.706;2024-03-02T04:03:33;100864.50;;;6.81;72.55
85764;BME280;76207;39.772;2.706;2024-03-02T04:05:59;100869.27;;;6.76;72.93
85764;BME280;76207;39.772;2.706;2024-03-02T04:08:24;100863.46;;;6.76;72.76
85764;BME280;76207;39.772;2.706;2024-03-02T04:10:50;100860.25;;;6.74;72.72
85764;BME280;76207;39.772;2.706;2024-03-02T04:13:15;100868.65;;;6.72;72.96
85764;BME280;76207;39.772;2.706;2024-03-02T04:15:41;100865.71;;;6.71;73.18
85764;BME280;76207;39.772;2.706;2024-03-02T04:18:07;100865.08;;;6.72;73.27
85764;BME280;76207;39.772;2.706;2024-03-02T04:20:32;100867.16;;;6.70;72.89
85764;BME280;76207;39.772;2.706;2024-03-02T04:22:57;100869.70;;;6.67;73.34
85764;BME280;76207;39.772;2.706;2024-03-02T04:25:23;100867.50;;;6.65;73.55
85764;BME280;76207;39.772;2.706;2024-03-02T04:27:48;100866.52;;;6.63;73.50
85764;BME280;76207;39.772;2.706;2024-03-02T04:30:14;100868.87;;;6.63;73.54
85764;BME280;76207;39.772;2.706;2024-03-02T04:32:39;100861.52;;;6.62;73.45
85764;BME280;76207;39.772;2.706;2024-03-02T04:35:06;100865.05;;;6.64;73.45
85764;BME280;76207;39.772;2.706;2024-03-02T04:37:34;100866.95;;;6.64;73.87
85764;BME280;76207;39.772;2.706;2024-03-02T04:40:00;100865.88;;;6.59;73.61
85764;BME280;76207;39.772;2.706;2024-03-02T04:42:25;100864.58;;;6.59;73.43
85764;BME280;76207;39.772;2.706;2024-03-02T04:44:51;100868.16;;;6.60;73.61
85764;BME280;76207;39.772;2.706;2024-03-02T04:47:17;100863.27;;;6.60;74.15
85764;BME280;76207;39.772;2.706;2024-03-02T04:49:42;100866.93;;;6.59;73.81
85764;BME280;76207;39.772;2.706;2024-03-02T04:52:09;100857.71;;;6.59;74.24
85764;BME280;76207;39.772;2.706;2024-03-02T04:54:35;100864.84;;;6.59;74.33
85764;BME280;76207;39.772;2.706;2024-03-02T04:57:20;100854.00;;;6.57;74.02
85764;BME280;76207;39.772;2.706;2024-03-02T04:59:45;100858.77;;;6.54;74.54
85764;BME280;76207;39.772;2.706;2024-03-02T05:02:11;100848.54;;;6.56;74.31
85764;BME280;76207;39.772;2.706;2024-03-02T05:04:39;100852.71;;;6.58;74.50
85764;BME280;76207;39.772;2.706;2024-03-02T05:07:05;100850.76;;;6.59;74.44
85764;BME280;76207;39.772;2.706;2024-03-02T05:09:31;100837.86;;;6.59;74.64
85764;BME280;76207;39.772;2.706;2024-03-02T05:11:56;100846.28;;;6.60;74.45
85764;BME280;76207;39.772;2.706;2024-03-02T05:14:45;100836.89;;;6.62;74.70
85764;BME280;76207;39.772;2.706;2024-03-02T05:17:11;100846.15;;;6.63;75.04
85764;BME280;76207;39.772;2.706;2024-03-02T05:19:36;100845.53;;;6.67;75.17
85764;BME280;76207;39.772;2.706;2024-03-02T05:22:03;100839.69;;;6.68;75.32
85764;BME280;76207;39.772;2.706;2024-03-02T05:24:29;100839.29;;;6.70;75.61
85764;BME280;76207;39.772;2.706;2024-03-02T05:26:55;100838.95;;;6.73;75.63
85764;BME280;76207;39.772;2.706;2024-03-02T05:29:21;100838.66;;;6.76;75.31
85764;BME280;76207;39.772;2.706;2024-03-02T05:31:47;100843.77;;;6.76;75.45
85764;BME280;76207;39.772;2.706;2024-03-02T05:34:12;100833.71;;;6.73;76.28
85764;BME280;76207;39.772;2.706;2024-03-02T05:36:38;100834.14;;;6.72;76.22
85764;BME280;76207;39.772;2.706;2024-03-02T05:39:05;100842.23;;;6.74;75.88
85764;BME280;76207;39.772;2.706;2024-03-02T05:41:34;100834.59;;;6.74;76.12
85764;BME280;76207;39.772;2.706;2024-03-02T05:44:00;100842.30;;;6.72;75.93
85764;BME280;76207;39.772;2.706;2024-03-02T05:46:27;100840.88;;;6.74;76.40
85764;BME280;76207;39.772;2.706;2024-03-02T05:48:53;100825.99;;;6.77;76.28
85764;BME280;76207;39.772;2.706;2024-03-02T05:51:18;100829.85;;;6.81;75.74
85764;BME280;76207;39.772;2.706;2024-03-02T05:53:44;100835.09;;;6.86;75.77
85764;BME280;76207;39.772;2.706;2024-03-02T05:56:09;100832.75;;;6.89;75.66
85764;BME280;76207;39.772;2.706;2024-03-02T05:58:35;100828.13;;;6.91;76.17
85764;BME280;76207;39.772;2.706;2024-03-02T06:01:19;100822.94;;;6.92;75.67
85764;BME280;76207;39.772;2.706;2024-03-02T06:03:45;100822.32;;;6.93;75.87
85764;BME280;76207;39.772;2.706;2024-03-02T06:06:10;100827.62;;;6.94;75.69
85764;BME280;76207;39.772;2.706;2024-03-02T06:08:36;100816.17;;;6.93;75.35
85764;BME280;76207;39.772;2.706;2024-03-02T06:11:01;100821.89;;;6.92;75.33
85764;BME280;76207;39.772;2.706;2024-03-02T06:13:27;100821.66;;;6.88;75.34
85764;BME280;76207;39.772;2.706;2024-03-02T06:15:53;100814.46;;;6.83;75.52
85764;BME280;76207;39.772;2.706;2024-03-02T06:18:18;100814.35;;;6.81;75.39
85764;BME280;76207;39.772;2.706;2024-03-02T06:20:44;100822.06;;;6.82;75.77
85764;BME280;76207;39.772;2.706;2024-03-02T06:23:09;100826.80;;;6.84;75.64
85764;BME280;76207;39.772;2.706;2024-03-02T06:25:35;100826.08;;;6.86;75.38
85764;BME280;76207;39.772;2.706;2024-03-02T06:28:00;100826.34;;;6.87;75.23
85764;BME280;76207;39.772;2.706;2024-03-02T06:30:26;100830.50;;;6.88;75.30
85764;BME280;76207;39.772;2.706;2024-03-02T06:32:51;100834.44;;;6.89;75.32
85764;BME280;76207;39.772;2.706;2024-03-02T06:35:17;100836.34;;;6.89;75.42
85764;BME280;76207;39.772;2.706;2024-03-02T06:37:42;100834.27;;;6.89;75.62
85764;BME280;76207;39.772;2.706;2024-03-02T06:40:09;100833.57;;;6.88;75.53
85764;BME280;76207;39.772;2.706;2024-03-02T06:42:35;100828.10;;;6.86;75.58
85764;BME280;76207;39.772;2.706;2024-03-02T06:45:02;100832.77;;;6.84;75.56
85764;BME280;76207;39.772;2.706;2024-03-02T06:47:28;100832.73;;;6.86;75.61
85764;BME280;76207;39.772;2.706;2024-03-02T06:49:53;100833.27;;;6.89;75.38
85764;BME280;76207;39.772;2.706;2024-03-02T06:52:19;100832.58;;;6.91;75.23
85764;BME280;76207;39.772;2.706;2024-03-02T06:54:46;100828.37;;;6.94;75.35
85764;BME280;76207;39.772;2.706;2024-03-02T06:57:12;100835.30;;;6.99;74.61
85764;BME280;76207;39.772;2.706;2024-03-02T06:59:37;100829.69;;;7.02;74.89
85764;BME280;76207;39.772;2.706;2024-03-02T07:02:03;100829.88;;;7.05;75.08
85764;BME280;76207;39.772;2.706;2024-03-02T07:04:28;100832.36;;;7.06;74.82
85764;BME280;76207;39.772;2.706;2024-03-02T07:06:54;100824.55;;;7.06;75.03
85764;BME280;76207;39.772;2.706;2024-03-02T07:09:20;100825.23;;;7.06;74.68
85764;BME280;76207;39.772;2.706;2024-03-02T07:11:48;100828.50;;;7.07;74.85
85764;BME280;76207;39.772;2.706;2024-03-02T07:14:14;100832.66;;;7.10;74.69
85764;BME280;76207;39.772;2.706;2024-03-02T07:16:40;100828.95;;;7.13;74.74
85764;BME280;76207;39.772;2.706;2024-03-02T07:19:08;100824.98;;;7.15;74.67
85764;BME280;76207;39.772;2.706;2024-03-02T07:21:34;100826.59;;;7.19;74.29
85764;BME280;76207;39.772;2.706;2024-03-02T07:23:59;100822.48;;;7.21;74.45
85764;BME280;76207;39.772;2.706;2024-03-02T07:26:28;100824.41;;;7.25;74.47
85764;BME280;76207;39.772;2.706;2024-03-02T07:28:55;100820.42;;;7.24;74.23
85764;BME280;76207;39.772;2.706;2024-03-02T07:31:20;100820.86;;;7.23;75.01
85764;BME280;76207;39.772;2.706;2024-03-02T07:33:46;100816.35;;;7.24;74.73
85764;BME280;76207;39.772;2.706;2024-03-02T07:36:12;100811.04;;;7.28;75.14
85764;BME280;76207;39.772;2.706;2024-03-02T07:38:38;100814.53;;;8.12;74.57
85764;BME280;76207;39.772;2.706;2024-03-02T07:41:04;100810.74;;;9.67;72.71
85764;BME280;76207;39.772;2.706;2024-03-02T07:43:30;100806.77;;;11.24;70.81
85764;BME280;76207;39.772;2.706;2024-03-02T07:45:57;100800.52;;;12.69;67.91
85764;BME280;76207;39.772;2.706;2024-03-02T07:48:22;100803.52;;;13.90;65.48
85764;BME280;76207;39.772;2.706;2024-03-02T07:50:48;100798.65;;;15.00;63.49
85764;BME280;76207;39.772;2.706;2024-03-02T07:53:14;100797.55;;;15.92;60.65
85764;BME280;76207;39.772;2.706;2024-03-02T07:55:40;100801.41;;;16.53;58.67
85764;BME280;76207;39.772;2.706;2024-03-02T07:58:06;100800.30;;;16.92;56.89
85764;BME280;76207;39.772;2.706;2024-03-02T08:00:32;100805.11;;;17.25;55.38
85764;BME280;76207;39.772;2.706;2024-03-02T08:02:58;100810.39;;;17.49;54.68
85764;BME280;76207;39.772;2.706;2024-03-02T08:05:24;100806.77;;;17.37;53.86
85764;BME280;76207;39.772;2.706;2024-03-02T08:07:50;100814.40;;;16.78;54.19
85764;BME280;76207;39.772;2.706;2024-03-02T08:10:18;100817.64;;;16.35;54.22
85764;BME280;76207;39.772;2.706;2024-03-02T08:12:44;100807.11;;;16.05;54.97
85764;BME280;76207;39.772;2.706;2024-03-02T08:15:09;100815.55;;;15.83;54.07
85764;BME280;76207;39.772;2.706;2024-03-02T08:17:35;100813.58;;;15.49;54.66
85764;BME280;76207;39.772;2.706;2024-03-02T08:20:01;100812.79;;;15.30;55.49
85764;BME280;76207;39.772;2.706;2024-03-02T08:22:27;100814.33;;;15.25;54.68
85764;BME280;76207;39.772;2.706;2024-03-02T08:24:53;100806.13;;;15.12;53.94
85764;BME280;76207;39.772;2.706;2024-03-02T08:27:19;100812.48;;;15.16;55.38
85764;BME280;76207;39.772;2.706;2024-03-02T08:29:45;100809.12;;;15.29;55.36
85764;BME280;76207;39.772;2.706;2024-03-02T08:32:11;100809.23;;;15.43;54.94
85764;BME280;76207;39.772;2.706;2024-03-02T08:34:36;100812.27;;;15.46;52.35
85764;BME280;76207;39.772;2.706;2024-03-02T08:37:02;100802.48;;;15.26;52.12
85764;BME280;76207;39.772;2.706;2024-03-02T08:39:28;100801.66;;;15.17;53.07
85764;BME280;76207;39.772;2.706;2024-03-02T08:41:54;100808.08;;;15.19;54.15
85764;BME280;76207;39.772;2.706;2024-03-02T08:44:20;100806.77;;;15.25;53.32
85764;BME280;76207;39.772;2.706;2024-03-02T08:46:46;100796.39;;;15.34;52.18
85764;BME280;76207;39.772;2.706;2024-03-02T08:49:12;100789.05;;;15.48;51.86
85764;BME280;76207;39.772;2.706;2024-03-02T08:51:38;100786.92;;;15.62;51.65
85764;BME280;76207;39.772;2.706;2024-03-02T08:54:04;100788.39;;;15.69;50.74
85764;BME280;76207;39.772;2.706;2024-03-02T08:56:30;100786.63;;;15.79;51.38
85764;BME280;76207;39.772;2.706;2024-03-02T08:58:56;100782.73;;;15.98;51.41
85764;BME280;76207;39.772;2.706;2024-03-02T09:01:22;100781.71;;;16.23;52.16
85764;BME280;76207;39.772;2.706;2024-03-02T09:03:49;100779.89;;;16.49;51.92
85764;BME280;76207;39.772;2.706;2024-03-02T09:06:14;100776.73;;;16.72;52.26
85764;BME280;76207;39.772;2.706;2024-03-02T09:08:44;100774.82;;;16.97;51.59
85764;BME280;76207;39.772;2.706;2024-03-02T09:11:10;100776.70;;;17.23;50.90
85764;BME280;76207;39.772;2.706;2024-03-02T09:13:37;100772.46;;;17.47;50.67
85764;BME280;76207;39.772;2.706;2024-03-02T09:16:03;100766.71;;;17.68;50.27
85764;BME280;76207;39.772;2.706;2024-03-02T09:18:30;100767.09;;;17.91;50.16
85764;BME280;76207;39.772;2.706;2024-03-02T09:20:56;100765.80;;;18.11;49.71
85764;BME280;76207;39.772;2.706;2024-03-02T09:23:22;100759.71;;;18.27;49.37
85764;BME280;76207;39.772;2.706;2024-03-02T09:25:47;100758.18;;;18.46;48.69
85764;BME280;76207;39.772;2.706;2024-03-02T09:28:15;100756.67;;;18.57;47.19
85764;BME280;76207;39.772;2.706;2024-03-02T09:30:40;100747.48;;;18.74;47.17
85764;BME280;76207;39.772;2.706;2024-03-02T09:33:06;100749.81;;;18.87;46.40
85764;BME280;76207;39.772;2.706;2024-03-02T09:35:32;100750.03;;;18.99;46.29
85764;BME280;76207;39.772;2.706;2024-03-02T09:37:57;100747.52;;;19.15;45.01
85764;BME280;76207;39.772;2.706;2024-03-02T09:40:23;100743.92;;;19.28;44.42
85764;BME280;76207;39.772;2.706;2024-03-02T09:42:49;100741.95;;;19.36;43.94
85764;BME280;76207;39.772;2.706;2024-03-02T09:45:25;100736.06;;;19.47;43.61
85764;BME280;76207;39.772;2.706;2024-03-02T09:47:51;100734.08;;;19.54;42.94
85764;BME280;76207;39.772;2.706;2024-03-02T09:50:16;100730.67;;;19.58;42.16
85764;BME280;76207;39.772;2.706;2024-03-02T09:52:42;100725.20;;;19.62;41.39
85764;BME280;76207;39.772;2.706;2024-03-02T09:55:09;100727.27;;;19.62;39.87
85764;BME280;76207;39.772;2.706;2024-03-02T09:57:35;100728.39;;;19.57;40.21
85764;BME280;76207;39.772;2.706;2024-03-02T10:00:00;100744.98;;;19.52;37.73
85764;BME280;76207;39.772;2.706;2024-03-02T10:02:26;100733.04;;;19.42;38.16
85764;BME280;76207;39.772;2.706;2024-03-02T10:04:52;100736.75;;;19.37;39.05
85764;BME280;76207;39.772;2.706;2024-03-02T10:07:18;100730.02;;;19.38;39.41
85764;BME280;76207;39.772;2.706;2024-03-02T10:09:46;100726.54;;;19.48;39.35
85764;BME280;76207;39.772;2.706;2024-03-02T10:12:15;100716.55;;;19.53;37.45
85764;BME280;76207;39.772;2.706;2024-03-02T10:14:41;100717.27;;;19.55;39.83
85764;BME280;76207;39.772;2.706;2024-03-02T10:17:09;100716.65;;;19.70;39.42
85764;BME280;76207;39.772;2.706;2024-03-02T10:19:35;100727.67;;;19.77;37.66
85764;BME280;76207;39.772;2.706;2024-03-02T10:22:04;100725.63;;;19.80;37.15
85764;BME280;76207;39.772;2.706;2024-03-02T10:24:42;100726.92;;;19.86;38.42
85764;BME280;76207;39.772;2.706;2024-03-02T10:27:18;100722.88;;;19.95;36.44
85764;BME280;76207;39.772;2.706;2024-03-02T10:29:48;100710.52;;;19.94;37.04
85764;BME280;76207;39.772;2.706;2024-03-02T10:32:15;100699.90;;;20.05;37.92
85764;BME280;76207;39.772;2.706;2024-03-02T10:34:43;100701.52;;;20.24;38.13
85764;BME280;76207;39.772;2.706;2024-03-02T10:37:11;100700.13;;;20.40;37.76
85764;BME280;76207;39.772;2.706;2024-03-02T10:39:37;100703.91;;;20.49;36.46
85764;BME280;76207;39.772;2.706;2024-03-02T10:42:06;100695.98;;;20.43;35.33
85764;BME280;76207;39.772;2.706;2024-03-02T10:44:32;100683.65;;;20.27;36.30
85764;BME280;76207;39.772;2.706;2024-03-02T10:47:03;100679.61;;;20.22;36.50
85764;BME280;76207;39.772;2.706;2024-03-02T10:49:30;100685.02;;;20.25;36.79
85764;BME280;76207;39.772;2.706;2024-03-02T10:52:00;100682.80;;;20.28;35.75
85764;BME280;76207;39.772;2.706;2024-03-02T10:54:26;100669.50;;;20.19;34.83
85764;BME280;76207;39.772;2.706;2024-03-02T10:56:58;100668.74;;;20.15;35.10
85764;BME280;76207;39.772;2.706;2024-03-02T10:59:34;100670.30;;;20.14;35.57
85764;BME280;76207;39.772;2.706;2024-03-02T11:02:02;100683.86;;;20.14;35.77
85764;BME280;76207;39.772;2.706;2024-03-02T11:04:29;100675.09;;;20.07;34.33
85764;BME280;76207;39.772;2.706;2024-03-02T11:07:07;100669.56;;;19.95;35.35
85764;BME280;76207;39.772;2.706;2024-03-02T11:09:41;100665.84;;;19.90;36.25
85764;BME280;76207;39.772;2.706;2024-03-02T11:12:12;100656.74;;;19.98;36.80
85764;BME280;76207;39.772;2.706;2024-03-02T11:14:42;100655.90;;;20.00;35.67
85764;BME280;76207;39.772;2.706;2024-03-02T11:17:11;100647.48;;;20.07;35.29
85764;BME280;76207;39.772;2.706;2024-03-02T11:19:39;100645.44;;;20.12;36.61
85764;BME280;76207;39.772;2.706;2024-03-02T11:22:06;100650.08;;;20.23;36.68
85764;BME280;76207;39.772;2.706;2024-03-02T11:24:32;100646.42;;;20.23;35.69
85764;BME280;76207;39.772;2.706;2024-03-02T11:27:03;100645.38;;;20.22;36.09
85764;BME280;76207;39.772;2.706;2024-03-02T11:32:16;100644.64;;;20.18;36.55
85764;BME280;76207;39.772;2.706;2024-03-02T11:34:44;100637.70;;;20.18;36.93
85764;BME280;76207;39.772;2.706;2024-03-02T11:37:12;100619.02;;;20.28;37.34
85764;BME280;76207;39.772;2.706;2024-03-02T11:39:39;100626.20;;;20.33;36.65
85764;BME280;76207;39.772;2.706;2024-03-02T11:42:06;100627.86;;;20.42;37.21
85764;BME280;76207;39.772;2.706;2024-03-02T11:44:36;100612.51;;;20.50;36.29
85764;BME280;76207;39.772;2.706;2024-03-02T11:47:05;100614.58;;;20.49;36.60
85764;BME280;76207;39.772;2.706;2024-03-02T11:52:05;100598.55;;;20.30;35.61
85764;BME280;76207;39.772;2.706;2024-03-02T11:54:37;100592.77;;;20.25;37.25
85764;BME280;76207;39.772;2.706;2024-03-02T11:57:06;100580.52;;;20.34;37.67
85764;BME280;76207;39.772;2.706;2024-03-02T11:59:32;100579.96;;;20.48;37.89
85764;BME280;76207;39.772;2.706;2024-03-02T12:01:58;100574.87;;;20.60;38.40
85764;BME280;76207;39.772;2.706;2024-03-02T12:04:25;100573.79;;;20.80;38.04
85764;BME280;76207;39.772;2.706;2024-03-02T12:06:59;100577.04;;;20.97;37.18
85764;BME280;76207;39.772;2.706;2024-03-02T12:09:28;100573.63;;;21.08;36.98
85764;BME280;76207;39.772;2.706;2024-03-02T12:12:04;100560.77;;;21.10;36.52
85764;BME280;76207;39.772;2.706;2024-03-02T12:14:34;100557.75;;;21.02;37.88
85764;BME280;76207;39.772;2.706;2024-03-02T12:17:01;100565.79;;;21.06;37.32
85764;BME280;76207;39.772;2.706;2024-03-02T12:19:27;100557.23;;;21.02;36.72
85764;BME280;76207;39.772;2.706;2024-03-02T12:21:56;100569.42;;;21.03;37.00
85764;BME280;76207;39.772;2.706;2024-03-02T12:24:22;100547.20;;;21.13;38.10
85764;BME280;76207;39.772;2.706;2024-03-02T12:26:51;100545.75;;;21.32;38.37
85764;BME280;76207;39.772;2.706;2024-03-02T12:29:19;100563.58;;;21.47;37.80
85764;BME280;76207;39.772;2.706;2024-03-02T12:31:45;100558.55;;;21.49;35.89
85764;BME280;76207;39.772;2.706;2024-03-02T12:34:15;100548.27;;;21.53;37.14
85764;BME280;76207;39.772;2.706;2024-03-02T12:36:41;100549.50;;;21.52;37.25
85764;BME280;76207;39.772;2.706;2024-03-02T12:39:10;100540.64;;;21.59;36.71
85764;BME280;76207;39.772;2.706;2024-03-02T12:41:36;100529.34;;;21.63;37.65
85764;BME280;76207;39.772;2.706;2024-03-02T12:44:04;100518.20;;;21.66;36.99
85764;BME280;76207;39.772;2.706;2024-03-02T12:46:31;100513.99;;;21.52;36.94
85764;BME280;76207;39.772;2.706;2024-03-02T12:49:21;100509.81;;;21.54;38.04
85764;BME280;76207;39.772;2.706;2024-03-02T12:51:46;100513.48;;;21.61;37.25
85764;BME280;76207;39.772;2.706;2024-03-02T12:54:17;100511.05;;;21.62;35.98
85764;BME280;76207;39.772;2.706;2024-03-02T12:56:43;100510.16;;;21.52;34.79
85764;BME280;76207;39.772;2.706;2024-03-02T12:59:19;100493.59;;;21.42;36.02
85764;BME280;76207;39.772;2.706;2024-03-02T13:01:53;100487.34;;;21.47;35.60
85764;BME280;76207;39.772;2.706;2024-03-02T13:04:27;100478.97;;;21.42;35.72